Naperville, Illinois
Current Conditions -  °F | °C
As of 12:52 AM on Saturday 25 Oct 2014 (Local Time) from KDPA Reporting Station
Overcast Overcast  
Wind Chill: 57°   Ceiling: 2100
Heat Index: 57°   Visibility: 10mi
Dew Point: 50°   Wind: 7mph
Humidity: 77%   Direction: 230°SW
Pressure: 29.91"   Gusts: NA
Location:  41.77°N, 88.15°W
Report Text: KDPA 250552Z 23006KT 10SM OVC021 14/10 A2991 RMK AO2 SLP128 60000 T01390100 10156 20111 402060100 58010
Loading
Personal Weather Stations






























Interactive Weather Map
Tropical Storm Tracking
New forecast layout! Learn more

10-Day Weather Forecast

Advertisements
Track Severe Weather on mobile